createdAt,value
2022-08-30T00:00:16.438Z,3.30
2022-08-30T00:02:44.840Z,6.07
2022-08-30T00:05:13.435Z,6.78
2022-08-30T00:07:41.413Z,4.25
2022-08-30T00:10:11.114Z,4.25
2022-08-30T00:12:39.331Z,6.93
2022-08-30T00:15:09.345Z,4.18
2022-08-30T00:17:40.716Z,4.65
2022-08-30T00:20:11.268Z,4.93
2022-08-30T00:22:39.859Z,4.85
2022-08-30T00:25:09.126Z,5.20
2022-08-30T00:27:38.456Z,4.72
2022-08-30T00:30:08.414Z,3.92
2022-08-30T00:32:36.439Z,5.45
2022-08-30T00:35:06.775Z,6.57
2022-08-30T00:37:34.803Z,4.97
2022-08-30T00:40:02.867Z,5.45
2022-08-30T00:42:31.024Z,5.25
2022-08-30T00:45:01.723Z,4.15
2022-08-30T00:47:29.688Z,3.65
2022-08-30T00:49:58.988Z,5.85
2022-08-30T00:52:26.982Z,4.78
2022-08-30T00:54:55.220Z,3.85
2022-08-30T00:57:23.303Z,4.07
2022-08-30T00:59:51.844Z,4.07
2022-08-30T01:02:24.041Z,4.53
2022-08-30T01:04:52.774Z,4.30
2022-08-30T01:07:20.750Z,3.47
2022-08-30T01:09:48.835Z,6.03
2022-08-30T01:12:17.389Z,5.15
2022-08-30T01:14:46.988Z,4.15
2022-08-30T01:17:16.717Z,5.32
2022-08-30T01:19:55.173Z,4.60
2022-08-30T01:22:29.106Z,3.78
2022-08-30T01:25:01.255Z,7.00
2022-08-30T01:27:32.245Z,3.50
2022-08-30T01:30:00.439Z,3.78
2022-08-30T01:32:30.194Z,3.58
2022-08-30T01:34:58.856Z,4.45
2022-08-30T01:37:30.273Z,8.93
2022-08-30T01:39:59.751Z,5.30
2022-08-30T01:42:28.425Z,6.10
2022-08-30T01:44:56.476Z,4.65
2022-08-30T01:47:24.428Z,3.60
2022-08-30T01:49:52.550Z,4.53
2022-08-30T01:52:21.382Z,5.00
2022-08-30T01:54:50.269Z,3.42
2022-08-30T01:57:22.589Z,4.68
2022-08-30T01:59:51.178Z,4.50
2022-08-30T02:02:22.854Z,3.88
2022-08-30T02:04:51.821Z,5.15
2022-08-30T02:07:20.101Z,6.22
2022-08-30T02:09:48.206Z,4.28
2022-08-30T02:12:16.257Z,6.07
2022-08-30T02:14:45.732Z,4.22
2022-08-30T02:17:15.505Z,4.57
2022-08-30T02:19:44.627Z,3.80
2022-08-30T02:22:12.655Z,4.35
2022-08-30T02:24:40.765Z,4.43
2022-08-30T02:27:08.856Z,5.32
2022-08-30T02:29:36.946Z,4.80
2022-08-30T02:32:06.754Z,4.78
2022-08-30T02:34:34.746Z,3.95
2022-08-30T02:37:03.064Z,6.82
2022-08-30T02:39:31.021Z,5.20
2022-08-30T02:41:59.034Z,5.85
2022-08-30T02:44:27.038Z,4.32
2022-08-30T02:46:55.000Z,4.85
2022-08-30T02:49:33.052Z,4.75
2022-08-30T02:52:02.069Z,5.22
2022-08-30T02:54:33.014Z,3.95
2022-08-30T02:57:04.617Z,3.72
2022-08-30T02:59:33.219Z,4.63
2022-08-30T03:02:01.347Z,4.78
2022-08-30T03:04:30.752Z,5.78
2022-08-30T03:06:59.120Z,10.07
2022-08-30T03:09:27.177Z,4.75
2022-08-30T03:11:55.192Z,3.50
2022-08-30T03:14:23.237Z,3.38
2022-08-30T03:16:51.554Z,3.40
2022-08-30T03:19:19.651Z,4.40
2022-08-30T03:21:49.207Z,4.38
2022-08-30T03:24:17.199Z,3.85
2022-08-30T03:26:46.557Z,5.05
2022-08-30T03:29:15.199Z,5.68
2022-08-30T03:31:52.909Z,3.55
2022-08-30T03:34:22.752Z,4.45
2022-08-30T03:36:53.441Z,5.80
2022-08-30T03:39:22.940Z,4.40
2022-08-30T03:41:51.957Z,3.70
2022-08-30T03:44:20.557Z,4.72
2022-08-30T03:46:49.661Z,4.45
2022-08-30T03:49:17.921Z,4.28
2022-08-30T03:51:45.919Z,3.85
2022-08-30T03:54:15.562Z,5.45
2022-08-30T03:56:43.558Z,4.57
2022-08-30T03:59:11.584Z,6.38
2022-08-30T04:01:39.615Z,5.13
2022-08-30T04:04:07.551Z,6.47
2022-08-30T04:06:35.839Z,5.03
2022-08-30T04:09:03.974Z,5.13
2022-08-30T04:11:33.700Z,5.05
2022-08-30T04:14:01.770Z,4.28
2022-08-30T04:16:29.792Z,4.35
2022-08-30T04:18:57.945Z,5.72
2022-08-30T04:21:25.933Z,4.55
2022-08-30T04:23:53.962Z,6.85
2022-08-30T04:26:22.191Z,8.98
2022-08-30T04:28:51.553Z,5.80
2022-08-30T04:31:20.114Z,3.80
2022-08-30T04:33:48.098Z,4.10
2022-08-30T04:36:16.072Z,5.13
2022-08-30T04:38:44.291Z,5.13
2022-08-30T04:41:16.349Z,4.38
2022-08-30T04:43:45.697Z,6.10
2022-08-30T04:46:15.335Z,4.93
2022-08-30T04:48:43.348Z,4.80
2022-08-30T04:51:14.303Z,4.97
2022-08-30T04:53:42.779Z,7.10
2022-08-30T04:56:11.960Z,8.02
2022-08-30T04:58:40.110Z,4.38
2022-08-30T05:01:15.186Z,4.93
2022-08-30T05:03:47.273Z,7.13
2022-08-30T05:06:16.889Z,5.72
2022-08-30T05:08:46.232Z,9.13
2022-08-30T05:11:16.166Z,7.45
2022-08-30T05:13:44.495Z,8.77
2022-08-30T05:16:17.703Z,5.20
2022-08-30T05:18:48.988Z,5.35
2022-08-30T05:21:19.189Z,7.35
2022-08-30T05:23:47.958Z,6.90
2022-08-30T05:26:18.371Z,7.22
2022-08-30T05:28:47.063Z,7.95
2022-08-30T05:31:20.953Z,4.72
2022-08-30T05:33:51.935Z,8.38
2022-08-30T05:36:22.087Z,6.38
2022-08-30T05:38:50.240Z,6.03
2022-08-30T05:41:20.466Z,7.43
2022-08-30T05:43:49.290Z,10.02
2022-08-30T05:46:19.582Z,7.25
2022-08-30T05:48:47.875Z,5.28
2022-08-30T05:51:20.603Z,7.22
2022-08-30T05:53:49.725Z,8.48
2022-08-30T05:56:19.834Z,6.70
2022-08-30T05:58:48.258Z,5.93
2022-08-30T06:01:22.553Z,4.82
2022-08-30T06:03:51.064Z,4.95
2022-08-30T06:06:20.413Z,5.07
2022-08-30T06:08:49.085Z,10.85
2022-08-30T06:11:19.657Z,6.63
2022-08-30T06:13:48.621Z,13.57
2022-08-30T06:16:19.117Z,6.10
2022-08-30T06:18:47.458Z,7.45
2022-08-30T06:21:17.742Z,8.73
2022-08-30T06:23:47.150Z,7.22
2022-08-30T06:26:15.825Z,9.20
2022-08-30T06:28:44.261Z,7.50
2022-08-30T06:31:15.531Z,4.22
2022-08-30T06:33:44.139Z,6.03
2022-08-30T06:36:14.660Z,6.18
2022-08-30T06:38:42.801Z,4.70
2022-08-30T06:41:14.802Z,7.57
2022-08-30T06:43:48.659Z,4.70
2022-08-30T06:46:19.771Z,6.13
2022-08-30T06:48:48.578Z,5.78
2022-08-30T06:51:20.201Z,7.38
2022-08-30T06:53:48.915Z,4.60
2022-08-30T06:56:20.029Z,5.35
2022-08-30T06:58:48.337Z,5.72
2022-08-30T07:01:19.526Z,8.13
2022-08-30T07:03:47.884Z,6.15
2022-08-30T07:06:16.423Z,7.85
2022-08-30T07:08:47.605Z,7.45
2022-08-30T07:11:16.557Z,7.30
2022-08-30T07:13:45.997Z,7.60
2022-08-30T07:16:15.355Z,9.48
2022-08-30T07:18:54.841Z,6.03
2022-08-30T07:21:25.748Z,9.10
2022-08-30T07:23:54.913Z,10.38
2022-08-30T07:26:25.914Z,10.45
2022-08-30T07:28:56.433Z,12.75
2022-08-30T07:31:25.508Z,14.50
2022-08-30T07:33:53.943Z,16.92
2022-08-30T07:36:22.928Z,10.00
2022-08-30T07:38:52.983Z,12.05
2022-08-30T07:41:22.673Z,17.67
2022-08-30T07:43:50.793Z,15.23
2022-08-30T07:46:20.518Z,15.02
2022-08-30T07:48:49.042Z,9.32
2022-08-30T07:51:19.670Z,7.10
2022-08-30T07:53:47.878Z,9.15
2022-08-30T07:56:17.112Z,5.75
2022-08-30T07:58:45.166Z,7.15
2022-08-30T08:01:14.713Z,15.00
2022-08-30T08:03:45.367Z,7.35
2022-08-30T08:06:15.967Z,5.95
2022-08-30T08:08:45.783Z,15.50
2022-08-30T08:11:16.695Z,12.77
2022-08-30T08:13:52.653Z,10.68
2022-08-30T08:16:23.230Z,9.68
2022-08-30T08:18:53.236Z,10.23
2022-08-30T08:21:21.580Z,10.18
2022-08-30T08:23:49.756Z,14.02
2022-08-30T08:26:18.216Z,9.50
2022-08-30T08:28:47.172Z,10.38
2022-08-30T08:31:16.734Z,10.68
2022-08-30T08:33:44.782Z,10.75
2022-08-30T08:36:14.152Z,11.80
2022-08-30T08:38:42.838Z,8.63
2022-08-30T08:41:21.382Z,13.02
2022-08-30T08:43:49.364Z,9.00
2022-08-30T08:46:27.258Z,10.63
2022-08-30T08:49:00.361Z,10.05
2022-08-30T08:51:52.384Z,11.52
2022-08-30T08:54:25.813Z,9.98
2022-08-30T08:56:54.407Z,7.10
2022-08-30T08:59:22.544Z,7.60
2022-08-30T09:01:51.167Z,13.57
2022-08-30T09:04:24.157Z,7.95
2022-08-30T09:06:58.461Z,9.57
2022-08-30T09:09:31.071Z,6.82
2022-08-30T09:11:59.512Z,11.23
2022-08-30T09:14:35.982Z,8.07
2022-08-30T09:17:08.448Z,8.23
2022-08-30T09:19:43.277Z,7.85
2022-08-30T09:22:27.905Z,9.07
2022-08-30T09:25:01.922Z,8.18
2022-08-30T09:27:33.973Z,10.65
2022-08-30T09:30:05.673Z,7.72
2022-08-30T09:32:40.397Z,7.63
2022-08-30T09:35:11.795Z,11.88
2022-08-30T09:37:50.100Z,8.55
2022-08-30T09:40:27.897Z,8.88
2022-08-30T09:43:08.509Z,11.35
2022-08-30T09:45:38.666Z,10.43
2022-08-30T09:48:24.207Z,6.18
2022-08-30T09:51:00.086Z,11.80
2022-08-30T09:53:35.504Z,7.95
2022-08-30T09:56:10.100Z,5.40
2022-08-30T09:58:58.736Z,6.47
2022-08-30T10:01:31.674Z,6.75
2022-08-30T10:04:06.883Z,10.23
2022-08-30T10:06:42.063Z,7.60
2022-08-30T10:09:20.433Z,10.80
2022-08-30T10:11:57.797Z,6.03
2022-08-30T10:14:52.164Z,9.30
2022-08-30T10:17:35.007Z,7.55
2022-08-30T10:20:16.513Z,6.78
2022-08-30T10:22:50.288Z,7.05
2022-08-30T10:25:24.198Z,4.47
2022-08-30T10:27:56.884Z,6.32
2022-08-30T10:30:24.929Z,6.70
2022-08-30T10:32:59.645Z,7.68
2022-08-30T10:35:38.336Z,8.45
2022-08-30T10:38:11.582Z,4.72
2022-08-30T10:41:02.906Z,3.97
2022-08-30T10:43:39.153Z,8.20
2022-08-30T10:46:15.508Z,6.75
2022-08-30T10:48:47.566Z,4.78
2022-08-30T10:51:21.508Z,5.72
2022-08-30T10:53:56.079Z,4.85
2022-08-30T10:56:29.512Z,8.80
2022-08-30T10:58:59.826Z,6.85
2022-08-30T11:01:46.500Z,10.20
2022-08-30T11:04:44.513Z,3.75
2022-08-30T11:07:25.703Z,5.47
2022-08-30T11:10:11.620Z,3.90
2022-08-30T11:12:54.724Z,3.95
2022-08-30T11:15:25.810Z,4.32
2022-08-30T11:18:01.769Z,4.03
2022-08-30T11:20:34.640Z,4.05
2022-08-30T11:23:36.166Z,5.80
2022-08-30T11:26:06.756Z,6.30
2022-08-30T11:29:06.579Z,6.22
2022-08-30T11:31:40.905Z,4.55
2022-08-30T11:34:09.959Z,3.38
2022-08-30T11:37:10.102Z,3.08
2022-08-30T11:39:54.346Z,4.28
2022-08-30T11:42:42.934Z,4.57
2022-08-30T11:45:49.101Z,3.58
2022-08-30T11:48:46.979Z,2.78
2022-08-30T11:52:26.658Z,5.68
2022-08-30T11:55:03.329Z,3.92
2022-08-30T11:57:39.404Z,3.47
2022-08-30T12:00:11.173Z,5.20
2022-08-30T12:02:53.590Z,6.30
2022-08-30T12:06:00.578Z,5.55
2022-08-30T12:08:48.593Z,3.58
2022-08-30T12:12:02.496Z,7.53
2022-08-30T12:14:48.967Z,7.50
2022-08-30T12:17:44.000Z,11.80
2022-08-30T12:20:23.014Z,3.13
2022-08-30T12:22:54.517Z,5.68
2022-08-30T12:25:31.402Z,2.40
2022-08-30T12:28:17.903Z,7.35
2022-08-30T12:30:46.667Z,4.35
2022-08-30T12:33:29.121Z,6.70
2022-08-30T12:35:59.374Z,6.68
2022-08-30T12:38:30.920Z,6.95
2022-08-30T12:41:05.700Z,4.65
2022-08-30T12:43:40.445Z,4.50
2022-08-30T12:46:12.844Z,3.78
2022-08-30T12:48:45.193Z,3.58
2022-08-30T12:51:29.366Z,8.43
2022-08-30T12:54:14.297Z,5.88
2022-08-30T12:56:58.042Z,3.50
2022-08-30T12:59:54.178Z,7.78
2022-08-30T13:02:27.869Z,3.22
2022-08-30T13:04:58.567Z,5.25
2022-08-30T13:07:29.892Z,8.48
2022-08-30T13:10:06.998Z,7.25
2022-08-30T13:12:38.311Z,5.75
2022-08-30T13:15:16.527Z,4.82
2022-08-30T13:17:45.702Z,4.93
2022-08-30T13:20:27.101Z,3.45
2022-08-30T13:23:10.033Z,3.42
2022-08-30T13:25:40.949Z,3.67
2022-08-30T13:28:09.783Z,5.35
2022-08-30T13:30:38.530Z,4.72
2022-08-30T13:33:06.523Z,4.25
2022-08-30T13:35:34.530Z,7.55
2022-08-30T13:38:04.268Z,4.30
2022-08-30T13:40:32.658Z,6.68
2022-08-30T13:43:03.627Z,5.45
2022-08-30T13:45:47.292Z,5.88
2022-08-30T13:48:17.517Z,6.43
2022-08-30T13:50:53.489Z,6.38
2022-08-30T13:53:51.964Z,10.73
2022-08-30T13:56:14.000Z,5.82
2022-08-30T13:58:43.636Z,5.05
2022-08-30T14:01:14.497Z,6.57
2022-08-30T14:06:34.095Z,4.60
2022-08-30T14:09:04.705Z,8.85
2022-08-30T14:11:33.022Z,4.70
2022-08-30T14:14:39.058Z,4.63
2022-08-30T14:16:52.636Z,5.15
2022-08-30T14:19:21.275Z,4.20
2022-08-30T14:21:49.450Z,7.63
2022-08-30T14:24:20.223Z,7.63
2022-08-30T14:26:51.525Z,7.15
2022-08-30T14:29:23.029Z,2.25
2022-08-30T14:31:52.572Z,5.05
2022-08-30T14:34:21.597Z,6.97
2022-08-30T14:36:49.626Z,6.32
2022-08-30T14:39:22.873Z,4.60
2022-08-30T14:41:53.603Z,8.07
2022-08-30T14:44:26.107Z,5.40
2022-08-30T14:46:54.546Z,6.35
2022-08-30T14:49:23.378Z,4.78
2022-08-30T14:51:52.121Z,5.88
2022-08-30T14:54:25.578Z,5.32
2022-08-30T14:56:54.386Z,6.43
2022-08-30T14:59:24.772Z,3.15
2022-08-30T15:01:52.884Z,3.35
2022-08-30T15:04:21.715Z,6.57
2022-08-30T15:06:50.390Z,3.40
2022-08-30T15:09:23.266Z,5.05
2022-08-30T15:11:53.086Z,3.63
2022-08-30T15:14:24.716Z,4.30
2022-08-30T15:16:55.155Z,3.47
2022-08-30T15:19:23.280Z,2.33
2022-08-30T15:21:51.738Z,2.80
2022-08-30T15:24:24.861Z,2.72
2022-08-30T15:26:58.118Z,7.40
2022-08-30T15:29:30.534Z,3.88
2022-08-30T15:32:01.017Z,2.72
2022-08-30T15:34:29.076Z,4.65
2022-08-30T15:36:57.515Z,3.40
2022-08-30T15:39:25.797Z,3.92
2022-08-30T15:42:00.291Z,3.28
2022-08-30T15:44:31.393Z,3.13
2022-08-30T15:46:59.953Z,4.78
2022-08-30T15:49:28.074Z,3.50
2022-08-30T15:52:00.798Z,3.20
2022-08-30T15:54:29.693Z,6.68
2022-08-30T15:57:00.093Z,5.07
2022-08-30T15:59:29.341Z,4.47
2022-08-30T16:01:59.590Z,3.67
2022-08-30T16:04:27.702Z,3.08
2022-08-30T16:06:56.379Z,4.05
2022-08-30T16:09:26.473Z,2.65
2022-08-30T16:11:58.125Z,4.00
2022-08-30T16:14:27.609Z,5.00
2022-08-30T16:16:55.820Z,3.17
2022-08-30T16:19:25.712Z,3.63
2022-08-30T16:21:53.982Z,2.80
2022-08-30T16:24:23.530Z,2.60
2022-08-30T16:26:52.059Z,2.25
2022-08-30T16:29:20.129Z,3.83
2022-08-30T16:31:48.318Z,5.00
2022-08-30T16:34:20.311Z,3.88
2022-08-30T16:36:49.863Z,4.82
2022-08-30T16:39:18.508Z,3.92
2022-08-30T16:41:46.726Z,6.53
2022-08-30T16:44:17.871Z,2.80
2022-08-30T16:46:52.978Z,2.60
2022-08-30T16:49:23.196Z,4.30
2022-08-30T16:51:55.616Z,3.90
2022-08-30T16:54:24.741Z,4.20
2022-08-30T16:56:53.107Z,4.55
2022-08-30T16:59:21.199Z,5.30
2022-08-30T17:01:49.666Z,5.68
2022-08-30T17:04:19.458Z,9.52
2022-08-30T17:06:49.625Z,9.30
2022-08-30T17:09:20.213Z,6.25
2022-08-30T17:11:49.323Z,5.25
2022-08-30T17:14:21.482Z,20.13
2022-08-30T17:16:51.548Z,18.75
2022-08-30T17:19:26.909Z,30.33
2022-08-30T17:21:58.221Z,15.00
2022-08-30T17:24:28.083Z,12.85
2022-08-30T17:26:56.098Z,4.90
2022-08-30T17:29:26.449Z,4.07
2022-08-30T17:31:54.995Z,3.85
2022-08-30T17:34:24.170Z,2.22
2022-08-30T17:36:57.158Z,3.28
2022-08-30T17:39:27.420Z,4.20
2022-08-30T17:41:56.486Z,4.45
2022-08-30T17:44:29.027Z,8.75
2022-08-30T17:46:58.402Z,7.25
2022-08-30T17:49:28.811Z,7.20
2022-08-30T17:51:58.229Z,11.68
2022-08-30T17:54:29.009Z,14.02
2022-08-30T17:56:57.515Z,5.82
2022-08-30T17:59:26.601Z,7.93
2022-08-30T18:01:57.473Z,5.53
2022-08-30T18:04:27.154Z,7.53
2022-08-30T18:06:55.621Z,7.72
2022-08-30T18:09:24.668Z,7.03
2022-08-30T18:11:56.471Z,5.18
2022-08-30T18:14:25.295Z,3.80
2022-08-30T18:16:54.497Z,5.57
2022-08-30T18:19:23.493Z,3.25
2022-08-30T18:21:51.568Z,4.25
2022-08-30T18:24:19.577Z,5.70
2022-08-30T18:26:47.654Z,3.47
2022-08-30T18:29:25.996Z,4.25
2022-08-30T18:31:57.365Z,7.78
2022-08-30T18:34:25.416Z,3.33
2022-08-30T18:36:54.150Z,4.57
2022-08-30T18:39:23.106Z,10.57
2022-08-30T18:41:52.965Z,7.32
2022-08-30T18:44:29.104Z,4.80
2022-08-30T18:47:13.385Z,3.65
2022-08-30T18:49:42.673Z,4.43
2022-08-30T18:52:11.746Z,3.40
2022-08-30T18:54:41.125Z,4.25
2022-08-30T18:57:09.887Z,3.95
2022-08-30T18:59:41.931Z,3.03
2022-08-30T19:02:13.122Z,6.13
2022-08-30T19:07:34.220Z,3.75
2022-08-30T19:10:07.088Z,2.67
2022-08-30T19:12:35.049Z,3.75
2022-08-30T19:15:10.961Z,3.08
2022-08-30T19:17:41.695Z,3.83
2022-08-30T19:20:10.948Z,2.58
2022-08-30T19:23:09.010Z,4.35
2022-08-30T19:25:27.649Z,3.22
2022-08-30T19:27:57.026Z,4.10
2022-08-30T19:30:29.858Z,3.60
2022-08-30T19:32:58.563Z,1.63
2022-08-30T19:35:30.078Z,2.38
2022-08-30T19:37:58.423Z,2.88
2022-08-30T19:40:26.626Z,4.43
2022-08-30T19:42:54.838Z,8.27
2022-08-30T19:45:23.818Z,3.45
2022-08-30T19:47:54.016Z,3.75
2022-08-30T19:50:22.992Z,2.55
2022-08-30T19:52:54.738Z,2.03
2022-08-30T19:55:29.992Z,2.75
2022-08-30T19:57:58.424Z,3.75
2022-08-30T20:00:26.489Z,3.20
2022-08-30T20:02:55.899Z,2.83
2022-08-30T20:05:24.311Z,2.78
2022-08-30T20:07:52.565Z,3.33
2022-08-30T20:10:25.844Z,3.70
2022-08-30T20:12:54.173Z,4.53
2022-08-30T20:15:22.920Z,2.97
2022-08-30T20:18:05.682Z,1.48
2022-08-30T20:20:36.960Z,3.10
2022-08-30T20:23:05.879Z,4.55
2022-08-30T20:24:31.765Z,2.75
2022-08-30T20:25:34.109Z,1.80
2022-08-30T20:28:02.096Z,5.43
2022-08-30T20:30:30.285Z,3.67
2022-08-30T20:32:58.775Z,2.42
2022-08-30T20:35:28.405Z,3.85
2022-08-30T20:37:57.808Z,5.38
2022-08-30T20:40:25.823Z,2.85
2022-08-30T20:42:54.662Z,2.75
2022-08-30T20:45:22.823Z,3.90
2022-08-30T20:47:53.047Z,1.40
2022-08-30T20:50:21.332Z,2.83
2022-08-30T20:52:49.274Z,4.00
2022-08-30T20:55:18.629Z,2.15
2022-08-30T20:57:46.594Z,3.25
2022-08-30T21:00:15.476Z,1.90
2022-08-30T21:02:46.837Z,2.67
2022-08-30T21:05:17.754Z,3.90
2022-08-30T21:07:46.839Z,1.92
2022-08-30T21:10:21.165Z,3.67
2022-08-30T21:12:53.414Z,3.50
2022-08-30T21:15:36.873Z,5.20
2022-08-30T21:18:05.938Z,5.32
2022-08-30T21:20:33.951Z,3.42
2022-08-30T21:23:01.919Z,3.17
2022-08-30T21:25:30.987Z,4.07
2022-08-30T21:28:00.531Z,5.05
2022-08-30T21:30:28.610Z,4.18
2022-08-30T21:33:00.072Z,1.80
2022-08-30T21:35:46.113Z,4.15
2022-08-30T21:38:14.305Z,2.72
2022-08-30T21:40:42.552Z,5.63
2022-08-30T21:43:12.054Z,2.78
2022-08-30T21:45:40.555Z,2.25
2022-08-30T21:48:09.716Z,2.22
2022-08-30T21:50:39.948Z,4.07
2022-08-30T21:53:07.933Z,2.00
2022-08-30T21:55:35.883Z,4.82
2022-08-30T21:58:03.915Z,4.35
2022-08-30T22:00:33.685Z,3.63
2022-08-30T22:03:01.803Z,3.25
2022-08-30T22:05:29.871Z,5.20
2022-08-30T22:07:57.933Z,3.15
2022-08-30T22:10:30.010Z,5.05
2022-08-30T22:13:00.874Z,2.50
2022-08-30T22:15:28.950Z,3.40
2022-08-30T22:17:58.903Z,4.90
2022-08-30T22:20:30.327Z,4.45
2022-08-30T22:22:58.772Z,4.18
2022-08-30T22:25:26.768Z,9.02
2022-08-30T22:27:54.747Z,3.55
2022-08-30T22:30:22.715Z,2.95
2022-08-30T22:32:50.695Z,3.40
2022-08-30T22:35:22.076Z,4.07
2022-08-30T22:37:53.266Z,5.03
2022-08-30T22:40:22.850Z,7.07
2022-08-30T22:42:50.844Z,7.65
2022-08-30T22:45:19.028Z,7.40
2022-08-30T22:47:47.207Z,5.53
2022-08-30T22:50:15.161Z,4.32
2022-08-30T22:52:44.655Z,5.18
2022-08-30T22:55:12.664Z,7.22
2022-08-30T22:57:41.685Z,5.22
2022-08-30T23:00:15.147Z,8.45
2022-08-30T23:02:43.850Z,4.88
2022-08-30T23:05:12.647Z,6.72
2022-08-30T23:07:40.757Z,7.63
2022-08-30T23:10:12.262Z,5.15
2022-08-30T23:12:41.224Z,5.97
2022-08-30T23:15:12.582Z,6.07
2022-08-30T23:17:40.630Z,5.50
2022-08-30T23:20:09.696Z,5.45
2022-08-30T23:22:37.860Z,4.40
2022-08-30T23:25:25.372Z,8.02
2022-08-30T23:28:17.497Z,3.30
2022-08-30T23:31:06.430Z,6.97
2022-08-30T23:33:51.627Z,7.85
2022-08-30T23:36:37.170Z,3.13
2022-08-30T23:39:23.215Z,3.13
2022-08-30T23:42:08.748Z,4.65
2022-08-30T23:44:55.907Z,2.85
2022-08-30T23:47:41.442Z,6.63
2022-08-30T23:50:27.517Z,3.78
2022-08-30T23:53:12.801Z,2.85
2022-08-30T23:55:59.118Z,5.68
2022-08-30T23:58:44.892Z,1.77
